Time;durP1;ratioP1;P1;durP2;ratioP2;P2;SDS_P1;SDS_P2;PMS_P1;PMS_P2;Temp;Humidity;BMP_temperature;BMP_pressure;BME280_temperature;BME280_humidity;BME280_pressure;Samples;Min_cycle;Max_cycle;Signal;HPM_P1;HPM_P2
2022/12/18 00:01:21;;;;;;;71.88;21.98;;;-4.10;99.90;;;;;;5074746;28;20028;-61
2022/12/18 00:03:47;;;;;;;67.35;18.60;;;-4.20;99.90;;;;;;5087914;28;20032;-61
2022/12/18 00:06:14;;;;;;;70.53;20.77;;;-4.20;99.90;;;;;;5089024;28;20121;-61
2022/12/18 00:08:41;;;;;;;65.20;19.02;;;-4.10;99.90;;;;;;5088502;28;20433;-61
2022/12/18 00:11:10;;;;;;;73.65;20.10;;;-4.10;99.90;;;;;;5094282;28;20039;-60
2022/12/18 00:13:36;;;;;;;61.15;18.13;;;-4.10;99.90;;;;;;5089677;28;20111;-58
2022/12/18 00:16:03;;;;;;;73.30;21.50;;;-4.10;99.90;;;;;;5088044;28;20115;-58
2022/12/18 00:18:29;;;;;;;69.25;21.55;;;-4.10;99.90;;;;;;5079335;28;20035;-60
2022/12/18 00:20:59;;;;;;;65.55;23.10;;;-4.20;99.90;;;;;;5095538;28;20531;-60
2022/12/18 00:23:24;;;;;;;70.35;23.80;;;-4.20;99.90;;;;;;5097441;28;20686;-60
2022/12/18 00:25:50;;;;;;;60.10;17.60;;;-4.20;99.90;;;;;;5096421;28;20083;-61
2022/12/18 00:28:15;;;;;;;50.22;18.45;;;-4.20;99.90;;;;;;5097698;28;20583;-60
2022/12/18 00:30:40;;;;;;;48.78;15.88;;;-4.30;99.90;;;;;;5087226;28;20047;-60
2022/12/18 00:33:06;;;;;;;48.95;15.68;;;-4.30;99.90;;;;;;5094566;28;20449;-60
2022/12/18 00:35:32;;;;;;;40.17;14.07;;;-4.30;99.90;;;;;;5090196;28;20035;-60
2022/12/18 00:37:57;;;;;;;34.70;12.95;;;-4.20;99.90;;;;;;5091414;28;20086;-59
2022/12/18 00:40:22;;;;;;;37.55;13.18;;;-4.20;99.90;;;;;;5091822;28;20555;-59
2022/12/18 00:42:57;;;;;;;38.65;12.85;;;-4.20;99.90;;;;;;5098542;28;20095;-59
2022/12/18 00:45:28;;;;;;;36.17;12.32;;;-4.30;99.90;;;;;;5087651;28;20031;-60
2022/12/18 00:47:54;;;;;;;44.45;14.48;;;-4.20;99.90;;;;;;5091424;28;20031;-60
2022/12/18 00:50:21;;;;;;;32.78;13.63;;;-4.20;99.90;;;;;;5096413;28;20071;-60
2022/12/18 00:52:46;;;;;;;39.03;13.05;;;-4.20;99.90;;;;;;5094893;28;20505;-59
2022/12/18 00:55:13;;;;;;;38.97;14.52;;;-4.20;99.90;;;;;;5092516;28;20052;-60
2022/12/18 00:57:38;;;;;;;40.92;12.68;;;-4.20;99.90;;;;;;5093033;28;20070;-59
2022/12/18 01:00:05;;;;;;;34.92;11.80;;;-4.20;99.90;;;;;;5091353;28;20051;-61
2022/12/18 01:02:31;;;;;;;32.20;12.45;;;-4.10;99.90;;;;;;5096824;28;20042;-59
2022/12/18 01:04:56;;;;;;;31.30;11.65;;;-4.10;99.90;;;;;;5089373;28;20027;-56
2022/12/18 01:07:22;;;;;;;31.65;11.25;;;-4.10;99.90;;;;;;5084325;28;20570;-57
2022/12/18 01:09:47;;;;;;;33.35;11.48;;;-4.10;99.90;;;;;;5085900;28;20036;-56
2022/12/18 01:12:13;;;;;;;39.25;14.40;;;-4.10;99.90;;;;;;5086384;28;20404;-56
2022/12/18 01:14:38;;;;;;;37.90;14.88;;;-4.20;99.90;;;;;;5090160;28;20096;-53
2022/12/18 01:17:04;;;;;;;35.08;12.05;;;-4.20;99.90;;;;;;5093474;28;20058;-53
2022/12/18 01:19:30;;;;;;;34.00;11.07;;;-4.30;99.90;;;;;;5093934;28;20141;-57
2022/12/18 01:21:55;;;;;;;34.45;11.32;;;-4.30;99.90;;;;;;5099526;28;20395;-57
2022/12/18 01:24:21;;;;;;;30.38;11.73;;;-4.40;99.90;;;;;;5095371;28;20048;-55
2022/12/18 01:26:47;;;;;;;33.03;10.98;;;-4.40;99.90;;;;;;5093848;28;20087;-55
2022/12/18 01:29:12;;;;;;;32.03;11.07;;;-4.50;99.90;;;;;;5093104;28;20040;-55
2022/12/18 01:31:37;;;;;;;27.30;10.65;;;-4.50;99.90;;;;;;5092246;28;20023;-56
2022/12/18 01:34:04;;;;;;;34.00;10.30;;;-4.50;99.90;;;;;;5094488;28;20036;-53
2022/12/18 01:36:32;;;;;;;25.58;9.02;;;-4.50;99.90;;;;;;5095441;28;20024;-54
2022/12/18 01:39:07;;;;;;;28.88;9.98;;;-4.50;99.90;;;;;;5092418;28;20024;-51
2022/12/18 01:44:52;;;;;;;30.35;9.48;;;-4.50;99.90;;;;;;5072666;28;20119;-56
2022/12/18 01:47:32;;;;;;;30.92;10.50;;;-4.60;99.90;;;;;;5102936;28;20032;-55
2022/12/18 01:50:01;;;;;;;27.13;11.30;;;-4.60;99.90;;;;;;5080185;28;20034;-56
2022/12/18 01:52:30;;;;;;;32.28;10.02;;;-4.70;99.90;;;;;;5103325;28;20073;-57
2022/12/18 01:54:56;;;;;;;31.30;12.27;;;-4.60;99.90;;;;;;5099940;28;20036;-55
2022/12/18 01:57:24;;;;;;;33.97;11.00;;;-4.70;99.90;;;;;;5092836;28;20020;-55
2022/12/18 01:59:52;;;;;;;31.50;10.75;;;-4.70;99.90;;;;;;5096414;28;20044;-51
2022/12/18 02:02:18;;;;;;;39.60;15.05;;;-4.70;99.90;;;;;;5097990;28;20035;-57
2022/12/18 02:04:44;;;;;;;41.50;12.75;;;-4.70;99.90;;;;;;5080887;28;20058;-58
2022/12/18 02:07:35;;;;;;;39.20;12.82;;;-4.70;99.90;;;;;;5090366;28;20039;-58
2022/12/18 02:10:15;;;;;;;34.75;12.50;;;-4.70;99.90;;;;;;5054148;28;20052;-58
2022/12/18 02:13:12;;;;;;;40.72;13.93;;;-4.70;99.90;;;;;;5086283;28;20077;-58
2022/12/18 02:15:50;;;;;;;32.13;10.82;;;-4.80;99.90;;;;;;5082442;28;20023;-55
2022/12/18 02:18:22;;;;;;;30.38;10.70;;;-4.80;99.90;;;;;;5082773;28;20032;-57
2022/12/18 02:21:06;;;;;;;34.25;13.82;;;-4.80;99.90;;;;;;5084614;28;20082;-56
2022/12/18 02:23:53;;;;;;;32.63;12.32;;;-4.80;99.90;;;;;;5099125;28;20031;-58
2022/12/18 02:26:24;;;;;;;30.55;11.27;;;-4.80;99.90;;;;;;5070807;28;20101;-55
2022/12/18 02:28:53;;;;;;;33.28;10.55;;;-4.80;99.90;;;;;;5087524;28;20039;-56
2022/12/18 02:31:29;;;;;;;33.17;10.38;;;-4.80;99.90;;;;;;5090137;28;20119;-56
2022/12/18 02:33:58;;;;;;;31.48;11.20;;;-4.80;99.90;;;;;;5079457;28;20035;-56
2022/12/18 02:36:27;;;;;;;23.52;8.98;;;-4.80;99.90;;;;;;5090050;28;20063;-56
2022/12/18 02:38:54;;;;;;;34.38;10.90;;;-4.80;99.90;;;;;;5097116;28;20054;-56
2022/12/18 02:41:21;;;;;;;32.85;10.25;;;-4.80;99.90;;;;;;5084623;28;20134;-55
2022/12/18 02:43:48;;;;;;;40.70;12.00;;;-4.80;99.90;;;;;;5093071;28;20122;-51
2022/12/18 02:46:25;;;;;;;37.38;11.40;;;-4.80;99.90;;;;;;5090496;28;20032;-55
2022/12/18 02:48:54;;;;;;;33.58;10.00;;;-4.70;99.90;;;;;;5085774;28;20051;-54
2022/12/18 02:51:35;;;;;;;31.10;10.73;;;-4.70;99.90;;;;;;5090505;28;20035;-55
2022/12/18 02:54:14;;;;;;;27.52;8.77;;;-4.60;99.90;;;;;;5080485;28;20050;-57
2022/12/18 02:56:53;;;;;;;26.13;8.52;;;-4.60;99.90;;;;;;5083804;28;20024;-54
2022/12/18 02:59:30;;;;;;;28.67;9.32;;;-4.60;99.90;;;;;;5081416;28;20035;-55
2022/12/18 03:02:02;;;;;;;31.48;9.73;;;-4.60;99.90;;;;;;5083057;28;20024;-52
2022/12/18 03:04:38;;;;;;;33.95;12.85;;;-4.50;99.90;;;;;;5097458;28;20778;-57
2022/12/18 03:07:06;;;;;;;;;;;-4.50;99.90;;;;;;5096850;28;20020;-55
2022/12/18 03:09:35;;;;;;;34.72;11.48;;;-4.50;99.90;;;;;;5100949;28;19908;-54
2022/12/18 03:12:23;;;;;;;29.85;9.23;;;-4.50;99.90;;;;;;5088038;28;20024;-54
2022/12/18 03:15:03;;;;;;;35.40;10.77;;;-4.60;99.90;;;;;;5091927;28;20020;-57
2022/12/18 03:17:32;;;;;;;39.78;11.38;;;-4.60;99.90;;;;;;5078270;28;20023;-57
2022/12/18 03:20:03;;;;;;;28.42;8.40;;;-4.60;99.90;;;;;;5100635;28;20089;-51
2022/12/18 03:22:31;;;;;;;37.20;12.85;;;-4.60;99.90;;;;;;5079373;28;20031;-56
2022/12/18 03:25:00;;;;;;;31.40;11.38;;;-4.50;99.90;;;;;;5102155;28;20101;-55
2022/12/18 03:27:27;;;;;;;29.77;11.38;;;-4.60;99.90;;;;;;5109867;28;20030;-52
2022/12/18 03:30:07;;;;;;;35.30;11.48;;;-4.60;99.90;;;;;;5110901;28;20114;-53
2022/12/18 03:32:40;;;;;;;26.35;10.05;;;-4.60;99.90;;;;;;5080129;28;20023;-51
2022/12/18 03:35:07;;;;;;;38.17;13.60;;;-4.60;99.90;;;;;;5110775;28;20028;-57
2022/12/18 03:37:33;;;;;;;33.13;12.60;;;-4.70;99.90;;;;;;5108608;28;20031;-56
2022/12/18 03:39:59;;;;;;;35.42;12.55;;;-4.80;99.90;;;;;;5091922;28;20036;-57
2022/12/18 03:42:29;;;;;;;33.40;11.38;;;-4.90;99.90;;;;;;5090466;28;20036;-57
2022/12/18 03:45:09;;;;;;;34.97;11.93;;;-4.90;99.90;;;;;;5111845;28;20027;-56
2022/12/18 03:47:57;;;;;;;32.85;11.13;;;-5.00;99.90;;;;;;5089542;28;20059;-54
2022/12/18 03:50:33;;;;;;;35.55;12.85;;;-5.00;99.90;;;;;;5109637;28;20550;-57
2022/12/18 03:53:10;;;;;;;33.72;12.40;;;-5.10;99.90;;;;;;5111857;28;20103;-56
2022/12/18 03:55:37;;;;;;;36.78;12.68;;;-5.10;99.90;;;;;;5076022;28;20031;-56
2022/12/18 03:58:05;;;;;;;31.25;11.38;;;-5.10;99.90;;;;;;5109289;28;20063;-53
2022/12/18 04:00:31;;;;;;;30.15;11.18;;;-5.20;99.90;;;;;;5111463;28;20548;-54
2022/12/18 04:02:59;;;;;;;35.15;14.32;;;-5.10;99.90;;;;;;5090651;28;20197;-57
2022/12/18 04:05:26;;;;;;;42.10;14.23;;;-5.20;99.90;;;;;;5099176;28;20035;-54
2022/12/18 04:07:53;;;;;;;39.60;13.98;;;-5.30;99.90;;;;;;5109004;28;20084;-53
2022/12/18 04:10:19;;;;;;;33.60;14.38;;;-5.40;99.90;;;;;;5111348;28;20036;-57
2022/12/18 04:12:44;;;;;;;39.88;14.48;;;-5.50;99.90;;;;;;5089795;28;20436;-54
2022/12/18 04:15:11;;;;;;;34.10;12.57;;;-5.50;99.90;;;;;;5109253;28;20043;-54
2022/12/18 04:17:38;;;;;;;39.00;13.65;;;-5.60;99.90;;;;;;5089040;28;20145;-53
2022/12/18 04:20:04;;;;;;;37.50;13.60;;;-5.70;99.90;;;;;;5110621;28;20024;-56
2022/12/18 04:22:30;;;;;;;33.25;11.77;;;-5.80;99.90;;;;;;5089565;28;20024;-57
2022/12/18 04:24:55;;;;;;;38.00;12.15;;;-5.90;99.90;;;;;;5100564;28;20052;-58
2022/12/18 04:27:21;;;;;;;33.85;11.45;;;-6.00;99.90;;;;;;5108400;28;20035;-55
2022/12/18 04:29:47;;;;;;;32.05;12.07;;;-6.00;99.90;;;;;;5091047;28;20039;-55
2022/12/18 04:32:12;;;;;;;40.40;11.95;;;-6.00;99.90;;;;;;5108223;28;20052;-57
2022/12/18 04:34:38;;;;;;;38.15;14.32;;;-6.00;99.90;;;;;;5091096;28;20058;-57
2022/12/18 04:37:04;;;;;;;38.13;13.40;;;-6.00;99.90;;;;;;5092317;28;20121;-52
2022/12/18 04:39:29;;;;;;;41.75;13.32;;;-5.90;99.90;;;;;;5110071;28;20028;-55
2022/12/18 04:41:55;;;;;;;39.20;11.93;;;-5.80;99.90;;;;;;5087972;28;20503;-58
2022/12/18 04:44:20;;;;;;;32.45;10.88;;;-5.80;99.90;;;;;;5110012;28;20576;-54
2022/12/18 04:46:45;;;;;;;31.17;10.48;;;-5.70;99.90;;;;;;5089015;28;20101;-52
2022/12/18 04:49:11;;;;;;;37.65;12.23;;;-5.70;99.90;;;;;;5110005;28;20040;-54
2022/12/18 04:51:37;;;;;;;37.42;11.70;;;-5.70;99.90;;;;;;5088993;28;20411;-54
2022/12/18 04:54:03;;;;;;;44.78;14.75;;;-5.70;99.90;;;;;;5110006;28;20046;-56
2022/12/18 04:56:31;;;;;;;43.88;15.60;;;-5.70;99.90;;;;;;5099629;28;20044;-55
2022/12/18 04:58:56;;;;;;;37.20;12.75;;;-5.80;99.90;;;;;;5086820;28;20036;-53
2022/12/18 05:01:21;;;;;;;44.00;12.90;;;-5.80;99.90;;;;;;5089347;28;20040;-51
2022/12/18 05:03:47;;;;;;;31.92;10.73;;;-5.90;99.90;;;;;;5107256;28;20027;-57
2022/12/18 05:06:13;;;;;;;26.83;10.38;;;-5.90;99.90;;;;;;5084427;28;20031;-55
2022/12/18 05:08:38;;;;;;;31.15;9.77;;;-5.90;99.90;;;;;;5107526;28;20031;-54
2022/12/18 05:11:15;;;;;;;38.50;10.25;;;-5.90;99.90;;;;;;5108766;28;20039;-55
2022/12/18 05:13:41;;;;;;;30.10;9.98;;;-5.90;99.90;;;;;;5074613;28;20031;-54
2022/12/18 05:16:07;;;;;;;29.92;9.95;;;-5.90;99.90;;;;;;5089676;28;20028;-56
2022/12/18 05:18:33;;;;;;;28.95;9.38;;;-5.90;99.90;;;;;;5107372;28;20024;-53
2022/12/18 05:20:58;;;;;;;32.67;10.00;;;-5.90;99.90;;;;;;5110173;28;20070;-53
2022/12/18 05:23:24;;;;;;;34.33;9.65;;;-6.00;99.90;;;;;;5092667;28;20039;-55
2022/12/18 05:26:01;;;;;;;38.83;12.13;;;-6.00;99.90;;;;;;5109351;28;20111;-55
2022/12/18 05:28:29;;;;;;;28.40;9.77;;;-6.10;99.90;;;;;;5092422;28;20514;-54
2022/12/18 05:30:57;;;;;;;28.48;10.13;;;-6.20;99.90;;;;;;5109849;28;20035;-56
2022/12/18 05:33:24;;;;;;;32.15;9.73;;;-6.20;99.90;;;;;;5091995;28;20019;-55
2022/12/18 05:35:51;;;;;;;39.95;10.50;;;-6.20;99.90;;;;;;5109709;28;20106;-54
2022/12/18 05:38:18;;;;;;;32.55;9.38;;;-6.20;99.90;;;;;;5091404;28;20035;-54
2022/12/18 05:40:43;;;;;;;30.42;10.48;;;-6.10;99.90;;;;;;5109483;28;20134;-52
2022/12/18 05:43:09;;;;;;;36.22;9.90;;;-6.10;99.90;;;;;;5090207;28;20106;-54
2022/12/18 05:45:38;;;;;;;29.25;9.00;;;-6.10;99.90;;;;;;5107787;28;20019;-51
2022/12/18 05:48:03;;;;;;;30.35;10.73;;;-6.00;99.90;;;;;;5105472;28;20031;-52
2022/12/18 05:50:29;;;;;;;32.25;11.18;;;-5.90;99.90;;;;;;5089232;28;20024;-55
2022/12/18 05:52:54;;;;;;;46.70;13.40;;;-5.90;99.90;;;;;;5068675;28;20446;-55
2022/12/18 05:55:20;;;;;;;32.05;10.90;;;-6.00;99.90;;;;;;5109713;28;20022;-55
2022/12/18 05:57:45;;;;;;;37.30;11.05;;;-6.00;99.90;;;;;;5089647;28;20043;-63
2022/12/18 06:00:11;;;;;;;28.08;10.57;;;-5.90;99.90;;;;;;5087197;28;20044;-55
2022/12/18 06:02:37;;;;;;;34.83;11.98;;;-5.90;99.90;;;;;;5108729;28;20036;-63
2022/12/18 06:05:02;;;;;;;37.30;14.23;;;-5.90;99.90;;;;;;5088898;28;20028;-63
2022/12/18 06:07:28;;;;;;;40.88;13.82;;;-5.90;99.90;;;;;;5109274;28;20495;-62
2022/12/18 06:09:53;;;;;;;36.78;13.65;;;-5.90;99.90;;;;;;5087740;28;20031;-63
2022/12/18 06:12:19;;;;;;;45.42;15.05;;;-5.90;99.90;;;;;;5108488;28;20043;-63
2022/12/18 06:14:44;;;;;;;40.40;13.57;;;-5.80;99.90;;;;;;5087657;28;20497;-63
2022/12/18 06:17:10;;;;;;;36.10;13.35;;;-5.80;99.90;;;;;;5108302;28;20043;-63
2022/12/18 06:19:35;;;;;;;37.67;13.10;;;-5.80;99.90;;;;;;5087359;28;20186;-62
2022/12/18 06:22:01;;;;;;;45.05;14.85;;;-5.90;99.90;;;;;;5108508;28;20444;-63
2022/12/18 06:24:26;;;;;;;44.90;15.05;;;-5.90;99.90;;;;;;5092672;28;20032;-62
2022/12/18 06:26:51;;;;;;;36.83;12.30;;;-6.00;99.90;;;;;;5109179;28;20035;-63
2022/12/18 06:29:17;;;;;;;37.28;13.75;;;-6.00;99.90;;;;;;5087282;28;20067;-63
2022/12/18 06:31:43;;;;;;;38.20;13.20;;;-6.00;99.90;;;;;;5108282;28;20381;-63
2022/12/18 06:34:08;;;;;;;34.90;12.82;;;-6.00;99.90;;;;;;5098004;28;20031;-63
2022/12/18 06:36:34;;;;;;;38.97;13.45;;;-6.00;99.90;;;;;;5087350;28;20051;-63
2022/12/18 06:38:59;;;;;;;34.83;12.50;;;-6.10;99.90;;;;;;5112679;28;20031;-63
2022/12/18 06:41:25;;;;;;;35.85;12.38;;;-6.10;99.90;;;;;;5101233;28;20035;-62
2022/12/18 06:43:51;;;;;;;33.17;12.45;;;-6.20;99.90;;;;;;5093309;28;20395;-63
2022/12/18 06:46:16;;;;;;;34.97;11.40;;;-6.20;99.90;;;;;;5110319;28;20036;-63
2022/12/18 06:48:42;;;;;;;32.95;12.07;;;-6.20;99.90;;;;;;5093211;28;20031;-63
2022/12/18 06:51:08;;;;;;;33.10;11.25;;;-6.30;99.90;;;;;;5110422;28;20027;-63
2022/12/18 06:53:34;;;;;;;30.15;11.20;;;-6.30;99.90;;;;;;5092814;28;20020;-63
2022/12/18 06:56:04;;;;;;;31.70;10.50;;;-6.30;99.90;;;;;;5110184;28;20127;-63
2022/12/18 06:58:29;;;;;;;32.15;11.48;;;-6.40;99.90;;;;;;5112914;28;20016;-63
2022/12/18 07:01:01;;;;;;;31.88;10.88;;;-6.40;99.90;;;;;;5095673;28;20032;-62
2022/12/18 07:03:26;;;;;;;42.10;14.80;;;-6.40;99.90;;;;;;5091821;28;20020;-63
2022/12/18 07:05:52;;;;;;;48.58;14.88;;;-6.40;99.90;;;;;;5085843;28;20031;-64
2022/12/18 07:08:17;;;;;;;45.63;14.88;;;-6.50;99.90;;;;;;5092731;28;20528;-64
2022/12/18 07:10:43;;;;;;;48.65;15.98;;;-6.50;99.90;;;;;;5090614;28;20028;-64
2022/12/18 07:13:09;;;;;;;42.97;15.10;;;-6.60;99.90;;;;;;5087597;28;20039;-63
2022/12/18 07:15:34;;;;;;;36.33;13.50;;;-6.50;99.90;;;;;;5100330;28;20095;-63
2022/12/18 07:18:00;;;;;;;40.15;13.55;;;-6.50;99.90;;;;;;5089794;28;20755;-64
2022/12/18 07:20:25;;;;;;;40.33;14.02;;;-6.50;99.90;;;;;;5095362;28;20071;-65
2022/12/18 07:22:51;;;;;;;42.90;14.77;;;-6.40;99.90;;;;;;5092670;28;20624;-63
2022/12/18 07:25:16;;;;;;;37.63;14.27;;;-6.40;99.90;;;;;;5107307;28;20114;-64
2022/12/18 07:27:42;;;;;;;47.67;17.30;;;-6.30;99.90;;;;;;5097218;28;20495;-64
2022/12/18 07:30:08;;;;;;;38.25;14.80;;;-6.20;99.90;;;;;;5098562;28;20044;-64
2022/12/18 07:32:34;;;;;;;42.65;14.38;;;-6.10;99.90;;;;;;5108965;28;20031;-64
2022/12/18 07:34:59;;;;;;;51.00;15.70;;;-6.10;99.90;;;;;;5093094;28;20106;-64
2022/12/18 07:37:25;;;;;;;49.83;16.92;;;-6.00;99.90;;;;;;5085385;28;20635;-63
2022/12/18 07:39:50;;;;;;;49.08;16.73;;;-6.00;99.90;;;;;;5078668;28;20039;-63
2022/12/18 07:42:31;;;;;;;41.58;14.10;;;-5.90;99.90;;;;;;5087112;28;20040;-64
2022/12/18 07:45:00;;;;;;;44.17;14.75;;;-5.80;99.90;;;;;;5089839;28;20028;-63
2022/12/18 07:47:27;;;;;;;49.72;16.00;;;-5.80;99.90;;;;;;5082626;28;20596;-62
2022/12/18 07:49:52;;;;;;;49.13;15.65;;;-5.70;99.90;;;;;;5103001;28;20110;-63
2022/12/18 07:52:18;;;;;;;56.58;17.35;;;-5.60;99.90;;;;;;5080819;28;20085;-63
2022/12/18 07:54:43;;;;;;;45.78;14.55;;;-5.60;99.90;;;;;;5098061;28;20028;-63
2022/12/18 07:57:09;;;;;;;47.65;16.95;;;-5.60;99.90;;;;;;5072301;28;20528;-63
2022/12/18 07:59:35;;;;;;;49.58;17.90;;;-5.50;99.90;;;;;;5108983;28;20747;-62
2022/12/18 08:02:00;;;;;;;42.70;15.68;;;-5.60;99.90;;;;;;5079972;28;20071;-63
2022/12/18 08:04:26;;;;;;;52.15;15.88;;;-5.50;99.90;;;;;;5108880;28;20046;-62
2022/12/18 08:06:51;;;;;;;40.10;13.90;;;-5.50;99.90;;;;;;5080507;28;20039;-63
2022/12/18 08:09:17;;;;;;;47.75;15.63;;;-5.40;99.90;;;;;;5101702;28;20024;-63
2022/12/18 08:11:43;;;;;;;33.30;11.23;;;-5.40;99.90;;;;;;5086423;28;20028;-62
2022/12/18 08:14:09;;;;;;;52.55;16.77;;;-5.30;99.90;;;;;;5091973;28;20028;-63
2022/12/18 08:16:35;;;;;;;52.42;16.13;;;-5.30;99.90;;;;;;5092488;28;20028;-63
2022/12/18 08:19:00;;;;;;;48.72;15.57;;;-5.30;99.90;;;;;;5110115;28;20604;-62
2022/12/18 08:21:28;;;;;;;43.13;17.10;;;-5.20;99.90;;;;;;5086596;28;20039;-62
2022/12/18 08:23:57;;;;;;;46.20;16.20;;;-5.20;99.90;;;;;;5108405;28;20039;-62
2022/12/18 08:26:25;;;;;;;38.55;13.20;;;-5.20;99.90;;;;;;5091068;28;20063;-63
2022/12/18 08:28:51;;;;;;;46.10;16.13;;;-5.10;99.90;;;;;;5092671;28;20109;-64
2022/12/18 08:31:17;;;;;;;49.85;16.92;;;-5.00;99.90;;;;;;5088875;28;20071;-64
2022/12/18 08:33:43;;;;;;;41.35;14.23;;;-4.90;99.90;;;;;;5093902;28;20105;-65
2022/12/18 08:36:09;;;;;;;45.80;15.38;;;-4.90;99.90;;;;;;5084868;28;20496;-65
2022/12/18 08:38:35;;;;;;;45.38;13.20;;;-4.90;99.90;;;;;;5088954;28;20034;-65
2022/12/18 08:41:02;;;;;;;54.47;16.60;;;-4.80;99.90;;;;;;5098489;28;20036;-65
2022/12/18 08:46:12;;;;;;;47.13;14.93;;;-4.80;99.90;;;;;;5068378;28;20043;-65
2022/12/18 08:48:38;;;;;;;55.47;18.77;;;-4.70;99.90;;;;;;5094393;28;20392;-64
2022/12/18 08:51:03;;;;;;;52.85;17.42;;;-4.70;99.90;;;;;;5091942;28;20404;-64
2022/12/18 08:53:29;;;;;;;58.30;18.13;;;-4.60;99.90;;;;;;5106080;28;20342;-64
2022/12/18 08:55:56;;;;;;;54.33;17.40;;;-4.60;99.90;;;;;;5081992;28;20130;-64
2022/12/18 08:58:22;;;;;;;51.75;14.93;;;-4.60;99.90;;;;;;5103963;28;20035;-65
2022/12/18 09:00:47;;;;;;;40.53;14.90;;;-4.60;99.90;;;;;;5095211;28;20036;-64
2022/12/18 09:03:14;;;;;;;49.58;14.90;;;-4.50;99.90;;;;;;5094821;28;20107;-64
2022/12/18 09:05:40;;;;;;;54.03;14.00;;;-4.50;99.90;;;;;;5094754;28;20027;-64
2022/12/18 09:08:06;;;;;;;53.83;14.73;;;-4.40;99.90;;;;;;5094850;28;20028;-64
2022/12/18 09:10:31;;;;;;;47.78;14.05;;;-4.30;99.90;;;;;;5109032;28;20027;-64
2022/12/18 09:12:57;;;;;;;38.78;13.40;;;-4.20;99.90;;;;;;5093295;28;20031;-64
2022/12/18 09:15:23;;;;;;;38.47;11.48;;;-4.20;99.90;;;;;;5109141;28;20472;-64
2022/12/18 09:17:49;;;;;;;32.50;10.35;;;-4.10;99.90;;;;;;5092073;28;20062;-64
2022/12/18 09:20:15;;;;;;;34.63;13.35;;;-3.90;99.90;;;;;;5108834;28;20084;-64
2022/12/18 09:22:41;;;;;;;42.15;14.40;;;-3.90;99.90;;;;;;5090645;28;20088;-64
2022/12/18 09:25:10;;;;;;;46.70;14.70;;;-3.80;99.90;;;;;;5097426;28;20044;-64
2022/12/18 09:27:35;;;;;;;38.95;15.40;;;-3.90;99.90;;;;;;5106505;28;20020;-65
2022/12/18 09:30:01;;;;;;;42.30;15.95;;;-3.90;99.90;;;;;;5108944;28;20502;-62
2022/12/18 09:32:27;;;;;;;46.78;14.80;;;-3.80;99.90;;;;;;5088376;28;20048;-62
2022/12/18 09:34:52;;;;;;;36.58;13.73;;;-3.80;99.90;;;;;;5106736;28;20627;-63
2022/12/18 09:37:18;;;;;;;44.45;15.65;;;-3.70;99.90;;;;;;5084941;28;20054;-62
2022/12/18 09:39:44;;;;;;;39.85;13.40;;;-3.70;99.90;;;;;;5091577;28;20050;-61
2022/12/18 09:42:20;;;;;;;38.13;13.48;;;-3.70;99.90;;;;;;5105863;28;20487;-64
2022/12/18 09:44:50;;;;;;;38.17;14.30;;;-3.70;99.90;;;;;;5069262;28;20028;-65
2022/12/18 09:47:23;;;;;;;47.45;15.02;;;-3.60;99.90;;;;;;5087497;28;20111;-62
2022/12/18 09:50:05;;;;;;;36.17;12.68;;;-3.50;99.90;;;;;;5083932;28;20023;-65
2022/12/18 09:52:39;;;;;;;45.90;15.57;;;-3.50;99.90;;;;;;5108264;28;20033;-62
2022/12/18 09:55:28;;;;;;;39.42;13.13;;;-3.40;99.90;;;;;;5086386;28;20030;-62
2022/12/18 09:58:26;;;;;;;36.08;12.68;;;-3.40;99.90;;;;;;5067899;28;20021;-62
2022/12/18 10:00:53;;;;;;;35.33;13.13;;;-3.40;99.90;;;;;;5080425;28;20071;-62
2022/12/18 10:03:19;;;;;;;36.65;13.70;;;-3.30;99.90;;;;;;5107744;28;20073;-63
2022/12/18 10:06:06;;;;;;;39.97;14.57;;;-3.30;99.90;;;;;;5092866;28;20448;-62
2022/12/18 10:08:49;;;;;;;42.03;14.75;;;-3.20;99.90;;;;;;5067449;28;20627;-61
2022/12/18 10:11:44;;;;;;;51.78;17.42;;;-3.30;99.90;;;;;;5084117;28;20032;-62
2022/12/18 10:14:14;;;;;;;33.50;12.23;;;-3.30;99.90;;;;;;5069284;28;20036;-52
2022/12/18 10:16:51;;;;;;;34.97;12.27;;;-3.20;99.90;;;;;;5083872;28;20602;-50
2022/12/18 10:19:31;;;;;;;30.05;11.95;;;-3.20;99.90;;;;;;5084957;28;20424;-48
2022/12/18 10:22:45;;;;;;;40.85;13.70;;;-3.20;99.90;;;;;;5088319;28;20036;-48
2022/12/18 10:25:33;;;;;;;35.80;13.43;;;-3.20;99.90;;;;;;5076373;28;20091;-46
2022/12/18 10:28:12;;;;;;;40.05;14.05;;;-3.20;99.90;;;;;;5077629;28;20032;-47
2022/12/18 10:30:39;;;;;;;33.45;11.85;;;-3.30;99.90;;;;;;5103087;28;20047;-47
2022/12/18 10:33:05;;;;;;;46.10;14.55;;;-3.30;99.90;;;;;;5084083;28;20130;-52
2022/12/18 10:35:31;;;;;;;45.25;14.88;;;-3.40;99.90;;;;;;5090550;28;20040;-47
2022/12/18 10:38:06;;;;;;;31.73;11.98;;;-3.40;99.90;;;;;;5091519;28;20024;-49
2022/12/18 10:40:46;;;;;;;44.50;15.02;;;-3.40;99.90;;;;;;5090672;28;20028;-48
2022/12/18 10:43:14;;;;;;;36.10;14.68;;;-3.40;99.90;;;;;;5080621;28;20047;-50
2022/12/18 10:45:40;;;;;;;35.65;13.55;;;-3.30;99.90;;;;;;5089961;28;20028;-48
2022/12/18 10:48:18;;;;;;;44.25;15.60;;;-3.30;99.90;;;;;;5090556;28;20043;-50
2022/12/18 10:50:48;;;;;;;40.65;13.43;;;-3.20;99.90;;;;;;5082520;28;20540;-52
2022/12/18 10:53:20;;;;;;;47.33;15.70;;;-3.20;99.90;;;;;;5090805;28;20036;-52
2022/12/18 10:55:46;;;;;;;35.83;13.65;;;-3.20;99.90;;;;;;5077316;28;20035;-52
2022/12/18 10:58:33;;;;;;;34.00;12.80;;;-3.20;99.90;;;;;;5088486;28;20380;-52
2022/12/18 11:01:14;;;;;;;38.53;14.40;;;-3.30;99.90;;;;;;5079541;28;20029;-51
2022/12/18 11:03:45;;;;;;;42.17;15.88;;;-3.30;99.90;;;;;;5065597;28;20040;-51
2022/12/18 11:06:16;;;;;;;43.22;15.52;;;-3.40;99.90;;;;;;5079165;28;20020;-53
2022/12/18 11:08:44;;;;;;;48.38;16.48;;;-3.40;99.90;;;;;;5065711;28;20119;-51
2022/12/18 11:11:20;;;;;;;46.70;15.02;;;-3.40;99.90;;;;;;5085178;28;20500;-54
2022/12/18 11:14:15;;;;;;;43.53;16.20;;;-3.50;99.90;;;;;;5066302;28;20035;-53
2022/12/18 11:16:46;;;;;;;46.90;16.90;;;-3.50;99.90;;;;;;5064058;28;20037;-54
2022/12/18 11:19:34;;;;;;;46.70;16.40;;;-3.50;99.90;;;;;;5102100;28;20032;-50
2022/12/18 11:22:02;;;;;;;41.53;14.93;;;-3.50;99.90;;;;;;5106274;28;20028;-51
2022/12/18 11:24:33;;;;;;;48.65;15.57;;;-3.40;99.90;;;;;;5088462;28;20137;-49
2022/12/18 11:27:02;;;;;;;46.63;17.17;;;-3.30;99.90;;;;;;5089252;28;20324;-51
2022/12/18 11:29:36;;;;;;;43.80;16.17;;;-3.20;99.90;;;;;;5107436;28;20027;-50
2022/12/18 11:32:26;;;;;;;50.92;18.02;;;-3.30;99.90;;;;;;5109746;28;20059;-52
2022/12/18 11:35:08;;;;;;;38.30;16.33;;;-3.30;99.90;;;;;;5107866;28;20027;-52
2022/12/18 11:37:34;;;;;;;40.90;14.20;;;-3.30;99.90;;;;;;5106798;28;20027;-49
2022/12/18 11:40:07;;;;;;;42.78;16.73;;;-3.20;99.90;;;;;;5106514;28;20141;-50
2022/12/18 11:42:52;;;;;;;41.10;16.98;;;-3.30;99.90;;;;;;5090906;28;20035;-49
2022/12/18 11:45:26;;;;;;;43.08;15.10;;;-3.20;99.90;;;;;;5084111;28;20062;-53
2022/12/18 11:48:00;;;;;;;39.33;15.25;;;-3.20;99.90;;;;;;5068783;28;20496;-52
2022/12/18 11:50:48;;;;;;;37.97;16.17;;;-3.30;99.90;;;;;;5086257;28;20036;-54
2022/12/18 11:53:13;;;;;;;40.03;15.35;;;-3.30;99.90;;;;;;5075282;28;20024;-52
2022/12/18 11:55:50;;;;;;;39.65;17.27;;;-3.30;99.90;;;;;;5095542;28;20528;-51
2022/12/18 11:58:24;;;;;;;42.88;18.80;;;-3.30;99.90;;;;;;5068850;28;20496;-53
2022/12/18 12:01:25;;;;;;;41.50;15.55;;;-3.30;99.90;;;;;;5092594;28;20400;-51
2022/12/18 12:04:24;;;;;;;43.40;15.80;;;-3.30;99.90;;;;;;5082092;28;20028;-51
2022/12/18 12:07:02;;;;;;;35.58;14.10;;;-3.30;99.90;;;;;;5062038;28;20119;-63
2022/12/18 12:09:49;;;;;;;37.30;14.35;;;-3.20;99.90;;;;;;5081360;28;20027;-62
2022/12/18 12:12:45;;;;;;;41.40;15.45;;;-3.20;99.90;;;;;;5104797;28;20024;-63
2022/12/18 12:15:32;;;;;;;39.88;15.82;;;-3.10;99.90;;;;;;5068546;28;20556;-63
2022/12/18 12:18:22;;;;;;;41.10;15.70;;;-3.20;99.90;;;;;;5104803;28;20035;-64
2022/12/18 12:20:59;;;;;;;41.42;15.45;;;-3.20;99.90;;;;;;5068013;28;20036;-63
2022/12/18 12:24:14;;;;;;;41.42;14.40;;;-3.30;99.90;;;;;;5084389;28;20028;-62
2022/12/18 12:27:21;;;;;;;35.63;14.15;;;-3.30;99.90;;;;;;5041819;28;20445;-64
2022/12/18 12:30:37;;;;;;;39.63;14.25;;;-3.20;99.90;;;;;;5078109;28;20461;-64
2022/12/18 12:33:30;;;;;;;34.13;12.10;;;-3.10;99.90;;;;;;5077899;28;20056;-63
2022/12/18 12:36:22;;;;;;;26.58;11.55;;;-3.00;99.90;;;;;;5076428;28;20032;-64
2022/12/18 12:38:56;;;;;;;29.92;11.55;;;-2.90;99.90;;;;;;5086674;28;20111;-63
2022/12/18 12:44:38;;;;;;;37.05;14.45;;;-2.70;99.90;;;;;;5067739;28;20054;-64
2022/12/18 12:47:30;;;;;;;28.85;10.93;;;-2.70;99.90;;;;;;5080595;28;20048;-64
2022/12/18 12:49:58;;;;;;;34.63;13.48;;;-2.70;99.90;;;;;;5080386;28;20048;-63
2022/12/18 12:52:37;;;;;;;33.85;12.93;;;-2.70;99.90;;;;;;5083898;28;20024;-62
2022/12/18 12:55:05;;;;;;;32.20;12.07;;;-2.60;99.90;;;;;;5079388;28;20028;-64